createdAt,value
2023-01-11T00:00:30.757Z,91.11
2023-01-11T00:01:33.702Z,91.42
2023-01-11T00:02:35.443Z,90.59
2023-01-11T00:03:37.135Z,90.00
2023-01-11T00:04:39.239Z,90.09
2023-01-11T00:05:42.856Z,90.06
2023-01-11T00:06:45.401Z,89.54
2023-01-11T00:07:48.410Z,89.16
2023-01-11T00:08:51.797Z,88.68
2023-01-11T00:09:53.749Z,87.87
2023-01-11T00:10:56.354Z,88.24
2023-01-11T00:11:58.301Z,88.49
2023-01-11T00:13:01.234Z,88.69
2023-01-11T00:14:04.671Z,88.65
2023-01-11T00:15:07.679Z,88.88
2023-01-11T00:16:09.635Z,89.49
2023-01-11T00:17:11.304Z,89.81
2023-01-11T00:18:13.302Z,89.75
2023-01-11T00:19:14.878Z,90.21
2023-01-11T00:20:18.419Z,89.56
2023-01-11T00:21:21.512Z,89.82
2023-01-11T00:22:23.332Z,90.01
2023-01-11T00:23:25.071Z,89.13
2023-01-11T00:24:26.750Z,89.02
2023-01-11T00:25:28.658Z,89.05
2023-01-11T00:26:30.463Z,89.45
2023-01-11T00:27:32.228Z,90.01
2023-01-11T00:28:35.385Z,89.60
2023-01-11T00:29:36.986Z,89.79
2023-01-11T00:30:39.000Z,89.96
2023-01-11T00:31:40.803Z,90.49
2023-01-11T00:32:43.002Z,90.15
2023-01-11T00:33:44.808Z,90.38
2023-01-11T00:34:49.245Z,90.24
2023-01-11T00:35:52.587Z,90.35
2023-01-11T00:36:55.263Z,91.02
2023-01-11T00:37:57.674Z,90.83
2023-01-11T00:38:59.368Z,90.67
2023-01-11T00:40:04.753Z,90.85
2023-01-11T00:41:25.887Z,91.16
2023-01-11T00:42:46.807Z,91.27
2023-01-11T00:44:07.132Z,91.72
2023-01-11T00:45:27.783Z,92.13
2023-01-11T00:46:48.623Z,92.00
2023-01-11T00:48:01.337Z,92.38
2023-01-11T00:49:03.225Z,92.73
2023-01-11T00:50:05.715Z,93.21
2023-01-11T00:51:07.468Z,93.46
2023-01-11T00:52:09.986Z,93.83
2023-01-11T00:53:11.839Z,93.37
2023-01-11T00:54:13.947Z,93.26
2023-01-11T00:55:17.191Z,92.69
2023-01-11T00:56:18.834Z,92.60
2023-01-11T00:57:20.663Z,93.29
2023-01-11T00:58:22.565Z,93.69
2023-01-11T00:59:24.231Z,93.16
2023-01-11T01:00:27.550Z,93.25
2023-01-11T01:01:29.687Z,92.62
2023-01-11T01:02:34.281Z,92.67
2023-01-11T01:03:36.012Z,92.43
2023-01-11T01:04:38.378Z,92.39
2023-01-11T01:05:41.920Z,93.75
2023-01-11T01:06:44.571Z,94.09
2023-01-11T01:07:46.648Z,94.88
2023-01-11T01:08:48.441Z,93.73
2023-01-11T01:09:50.390Z,93.88
2023-01-11T01:10:52.921Z,93.16
2023-01-11T01:11:54.955Z,93.54
2023-01-11T01:13:15.187Z,93.00
2023-01-11T01:14:29.892Z,93.08
2023-01-11T01:15:32.905Z,93.52
2023-01-11T01:16:34.579Z,93.86
2023-01-11T01:17:36.122Z,93.82
2023-01-11T01:18:38.906Z,94.22
2023-01-11T01:19:41.991Z,94.59
2023-01-11T01:20:43.919Z,94.95
2023-01-11T01:21:45.461Z,95.37
2023-01-11T01:22:47.272Z,95.67
2023-01-11T01:23:49.016Z,95.37
2023-01-11T01:24:50.811Z,95.06
2023-01-11T01:25:52.510Z,95.60
2023-01-11T01:26:56.143Z,96.35
2023-01-11T01:27:58.072Z,96.09
2023-01-11T01:28:59.765Z,96.10
2023-01-11T01:30:01.690Z,96.02
2023-01-11T01:31:03.376Z,96.06
2023-01-11T01:32:05.514Z,96.04
2023-01-11T01:33:07.248Z,96.38
2023-01-11T01:34:10.932Z,96.23
2023-01-11T01:35:12.765Z,96.35
2023-01-11T01:36:14.311Z,96.04
2023-01-11T01:37:16.845Z,95.90
2023-01-11T01:38:18.539Z,96.34
2023-01-11T01:39:20.411Z,96.36
2023-01-11T01:40:23.062Z,96.25
2023-01-11T01:41:25.027Z,95.79
2023-01-11T01:42:26.868Z,96.41
2023-01-11T01:43:47.670Z,97.60
2023-01-11T01:44:58.523Z,97.86
2023-01-11T01:46:00.102Z,97.48
2023-01-11T01:47:04.801Z,98.18
2023-01-11T01:48:11.244Z,98.32
2023-01-11T01:49:17.055Z,98.15
2023-01-11T01:50:56.485Z,98.59
2023-01-11T01:51:58.523Z,99.11
2023-01-11T01:53:09.970Z,99.04
2023-01-11T01:54:15.302Z,99.28
2023-01-11T01:55:25.288Z,98.98
2023-01-11T01:56:34.034Z,99.34
2023-01-11T01:57:40.091Z,99.38
2023-01-11T01:58:47.316Z,99.26
2023-01-11T01:59:54.385Z,98.88
2023-01-11T02:00:58.145Z,99.00
2023-01-11T02:02:01.938Z,99.28
2023-01-11T02:03:04.410Z,99.21
2023-01-11T02:04:11.013Z,99.29
2023-01-11T02:05:16.178Z,99.19
2023-01-11T02:06:19.824Z,99.36
2023-01-11T02:07:28.985Z,99.71
2023-01-11T02:08:38.587Z,100.00
2023-01-11T02:09:55.094Z,100.00
2023-01-11T02:10:57.663Z,100.00
2023-01-11T02:12:02.162Z,100.00
2023-01-11T02:13:09.034Z,100.00
2023-01-11T02:14:15.499Z,100.00
2023-01-11T02:15:19.911Z,100.00
2023-01-11T02:16:23.966Z,100.00
2023-01-11T02:17:25.879Z,100.00
2023-01-11T02:18:27.673Z,100.00
2023-01-11T02:19:54.527Z,100.00
2023-01-11T02:21:17.867Z,100.00
2023-01-11T02:22:54.344Z,100.00
2023-01-11T02:24:26.713Z,100.00
2023-01-11T02:25:46.184Z,100.00
2023-01-11T02:27:32.636Z,100.00
2023-01-11T02:28:53.148Z,100.00
2023-01-11T02:30:30.399Z,100.00
2023-01-11T02:31:58.350Z,100.00
2023-01-11T02:33:15.830Z,100.00
2023-01-11T02:34:45.508Z,100.00
2023-01-11T02:35:56.237Z,100.00
2023-01-11T02:37:49.009Z,100.00
2023-01-11T02:38:53.586Z,100.00
2023-01-11T02:40:01.559Z,100.00
2023-01-11T02:41:28.126Z,100.00
2023-01-11T02:43:05.783Z,100.00
2023-01-11T02:44:33.006Z,100.00
2023-01-11T02:46:15.399Z,100.00
2023-01-11T02:47:25.222Z,100.00
2023-01-11T02:48:35.989Z,100.00
2023-01-11T02:49:52.259Z,100.00
2023-01-11T02:51:06.129Z,100.00
2023-01-11T02:52:25.454Z,100.00
2023-01-11T02:53:44.231Z,100.00
2023-01-11T02:54:54.205Z,100.00
2023-01-11T02:56:00.743Z,100.00
2023-01-11T02:57:04.990Z,100.00
2023-01-11T02:58:11.026Z,100.00
2023-01-11T02:59:17.703Z,100.00
2023-01-11T03:00:21.572Z,100.00
2023-01-11T03:01:25.862Z,100.00
2023-01-11T03:02:28.037Z,100.00
2023-01-11T03:03:29.993Z,100.00
2023-01-11T03:04:37.299Z,100.00
2023-01-11T03:05:45.026Z,100.00
2023-01-11T03:06:47.754Z,100.00
2023-01-11T03:08:02.994Z,100.00
2023-01-11T03:09:25.941Z,100.00
2023-01-11T03:10:27.775Z,100.00
2023-01-11T03:12:16.164Z,100.00
2023-01-11T03:13:37.159Z,100.00
2023-01-11T03:15:16.355Z,100.00
2023-01-11T03:16:47.731Z,100.00
2023-01-11T03:18:09.383Z,100.00
2023-01-11T03:19:34.667Z,100.00
2023-01-11T03:20:46.089Z,100.00
2023-01-11T03:22:37.229Z,100.00
2023-01-11T03:23:53.517Z,100.00
2023-01-11T03:25:21.173Z,100.00
2023-01-11T03:26:32.299Z,100.00
2023-01-11T03:27:54.391Z,100.00
2023-01-11T03:29:24.280Z,100.00
2023-01-11T03:30:31.622Z,100.00
2023-01-11T03:31:38.967Z,100.00
2023-01-11T03:32:50.718Z,100.00
2023-01-11T03:34:19.988Z,100.00
2023-01-11T03:35:40.924Z,100.00
2023-01-11T03:37:00.699Z,100.00
2023-01-11T03:38:16.445Z,100.00
2023-01-11T03:39:27.197Z,100.00
2023-01-11T03:40:33.536Z,100.00
2023-01-11T03:41:42.076Z,100.00
2023-01-11T03:43:06.091Z,100.00
2023-01-11T03:44:11.572Z,100.00
2023-01-11T03:45:13.497Z,100.00
2023-01-11T03:46:22.755Z,100.00
2023-01-11T03:47:29.470Z,100.00
2023-01-11T03:48:36.912Z,100.00
2023-01-11T03:50:02.918Z,100.00
2023-01-11T03:51:08.823Z,100.00
2023-01-11T03:52:13.518Z,100.00
2023-01-11T03:53:18.610Z,100.00
2023-01-11T03:54:26.587Z,100.00
2023-01-11T03:55:34.397Z,100.00
2023-01-11T03:57:07.323Z,100.00
2023-01-11T03:58:09.683Z,100.00
2023-01-11T03:59:15.097Z,100.00
2023-01-11T04:00:22.055Z,100.00
2023-01-11T04:01:25.202Z,100.00
2023-01-11T04:02:33.949Z,100.00
2023-01-11T04:03:36.271Z,100.00
2023-01-11T04:04:38.026Z,100.00
2023-01-11T04:05:43.789Z,100.00
2023-01-11T04:06:45.495Z,100.00
2023-01-11T04:07:47.141Z,100.00
2023-01-11T04:08:48.899Z,100.00
2023-01-11T04:09:53.705Z,100.00
2023-01-11T04:10:57.202Z,100.00
2023-01-11T04:11:59.082Z,99.35
2023-01-11T04:13:00.662Z,98.85
2023-01-11T04:14:08.106Z,98.79
2023-01-11T04:15:13.262Z,98.99
2023-01-11T04:16:14.972Z,97.62
2023-01-11T04:17:16.574Z,97.31
2023-01-11T04:18:18.584Z,96.69
2023-01-11T04:19:20.202Z,95.08
2023-01-11T04:20:21.819Z,95.07
2023-01-11T04:21:23.565Z,94.77
2023-01-11T04:22:25.129Z,94.57
2023-01-11T04:23:27.113Z,94.46
2023-01-11T04:24:28.816Z,94.54
2023-01-11T04:25:31.606Z,95.22
2023-01-11T04:26:33.287Z,93.76
2023-01-11T04:27:35.308Z,93.43
2023-01-11T04:28:37.463Z,93.70
2023-01-11T04:29:39.133Z,94.03
2023-01-11T04:30:40.725Z,94.17
2023-01-11T04:31:43.432Z,94.57
2023-01-11T04:32:45.078Z,94.67
2023-01-11T04:33:46.881Z,95.12
2023-01-11T04:34:48.773Z,94.56
2023-01-11T04:35:50.486Z,94.21
2023-01-11T04:36:52.195Z,93.63
2023-01-11T04:37:57.602Z,93.24
2023-01-11T04:38:59.780Z,93.53
2023-01-11T04:40:01.368Z,93.17
2023-01-11T04:41:23.692Z,93.07
2023-01-11T04:42:25.943Z,92.18
2023-01-11T04:43:28.558Z,92.32
2023-01-11T04:44:33.547Z,92.48
2023-01-11T04:45:36.184Z,92.04
2023-01-11T04:46:37.911Z,92.70
2023-01-11T04:47:39.532Z,92.16
2023-01-11T04:48:42.336Z,92.27
2023-01-11T04:49:44.183Z,92.27
2023-01-11T04:50:50.789Z,92.50
2023-01-11T04:51:52.477Z,92.66
2023-01-11T04:52:54.065Z,92.45
2023-01-11T04:53:56.003Z,92.03
2023-01-11T04:54:57.710Z,91.83
2023-01-11T04:56:04.745Z,91.23
2023-01-11T04:57:07.696Z,91.24
2023-01-11T04:58:10.987Z,90.68
2023-01-11T04:59:14.540Z,91.10
2023-01-11T05:00:16.907Z,91.38
2023-01-11T05:01:19.424Z,92.30
2023-01-11T05:02:21.858Z,92.13
2023-01-11T05:03:23.561Z,91.18
2023-01-11T05:04:25.351Z,90.46
2023-01-11T05:05:27.448Z,90.17
2023-01-11T05:06:29.239Z,89.64
2023-01-11T05:07:30.898Z,89.96
2023-01-11T05:08:32.860Z,90.13
2023-01-11T05:09:34.891Z,90.31
2023-01-11T05:10:39.003Z,89.94
2023-01-11T05:11:40.749Z,90.74
2023-01-11T05:12:42.554Z,90.57
2023-01-11T05:13:45.492Z,90.79
2023-01-11T05:14:47.422Z,90.38
2023-01-11T05:15:49.026Z,90.92
2023-01-11T05:16:50.799Z,91.10
2023-01-11T05:17:52.475Z,90.45
2023-01-11T05:18:55.108Z,91.02
2023-01-11T05:19:56.851Z,91.56
2023-01-11T05:20:59.298Z,91.71
2023-01-11T05:22:01.213Z,91.95
2023-01-11T05:23:03.170Z,91.75
2023-01-11T05:24:07.912Z,91.63
2023-01-11T05:25:11.412Z,91.56
2023-01-11T05:26:15.675Z,91.78
2023-01-11T05:27:17.413Z,91.74
2023-01-11T05:28:19.126Z,92.17
2023-01-11T05:29:21.582Z,92.38
2023-01-11T05:30:23.622Z,93.37
2023-01-11T05:31:25.894Z,93.33
2023-01-11T05:32:28.090Z,93.13
2023-01-11T05:33:30.281Z,93.08
2023-01-11T05:34:31.894Z,92.80
2023-01-11T05:35:33.527Z,92.63
2023-01-11T05:36:36.235Z,92.35
2023-01-11T05:37:38.623Z,92.26
2023-01-11T05:38:40.182Z,92.01
2023-01-11T05:39:42.057Z,92.50
2023-01-11T05:40:43.562Z,92.57
2023-01-11T05:41:45.199Z,93.42
2023-01-11T05:42:47.231Z,93.27
2023-01-11T05:44:08.941Z,93.27
2023-01-11T05:45:29.248Z,93.23
2023-01-11T05:46:31.969Z,94.10
2023-01-11T05:47:34.969Z,92.55
2023-01-11T05:48:38.856Z,92.17
2023-01-11T05:49:40.721Z,92.69
2023-01-11T05:50:42.870Z,93.28
2023-01-11T05:51:45.915Z,92.51
2023-01-11T05:52:47.781Z,92.61
2023-01-11T05:53:49.550Z,91.82
2023-01-11T05:54:51.565Z,92.23
2023-01-11T05:55:54.886Z,92.17
2023-01-11T05:56:57.897Z,91.51
2023-01-11T05:57:59.789Z,91.80
2023-01-11T05:59:02.541Z,91.67
2023-01-11T06:00:04.738Z,91.85
2023-01-11T06:01:06.470Z,90.98
2023-01-11T06:02:10.543Z,91.65
2023-01-11T06:03:13.156Z,92.34
2023-01-11T06:04:15.010Z,91.78
2023-01-11T06:05:17.205Z,91.75
2023-01-11T06:06:21.762Z,92.01
2023-01-11T06:07:27.219Z,91.64
2023-01-11T06:08:29.638Z,91.45
2023-01-11T06:09:31.768Z,91.82
2023-01-11T06:10:33.645Z,92.06
2023-01-11T06:11:35.387Z,92.03
2023-01-11T06:12:37.340Z,91.68
2023-01-11T06:13:40.011Z,91.14
2023-01-11T06:14:41.701Z,90.71
2023-01-11T06:15:43.855Z,90.38
2023-01-11T06:16:45.807Z,89.89
2023-01-11T06:17:47.656Z,90.50
2023-01-11T06:18:51.460Z,91.07
2023-01-11T06:19:53.175Z,91.08
2023-01-11T06:20:56.040Z,91.01
2023-01-11T06:21:57.789Z,90.55
2023-01-11T06:23:01.078Z,90.30
2023-01-11T06:24:02.923Z,89.95
2023-01-11T06:25:05.484Z,89.73
2023-01-11T06:26:09.661Z,89.84
2023-01-11T06:27:12.503Z,90.00
2023-01-11T06:28:14.301Z,90.21
2023-01-11T06:29:17.362Z,90.08
2023-01-11T06:30:21.048Z,89.63
2023-01-11T06:31:22.788Z,89.82
2023-01-11T06:32:24.387Z,90.41
2023-01-11T06:33:27.879Z,90.60
2023-01-11T06:34:29.856Z,90.14
2023-01-11T06:35:42.393Z,89.77
2023-01-11T06:36:44.241Z,88.53
2023-01-11T06:37:46.418Z,88.30
2023-01-11T06:38:48.293Z,88.59
2023-01-11T06:39:49.888Z,88.35
2023-01-11T06:41:00.584Z,88.40
2023-01-11T06:42:02.123Z,88.02
2023-01-11T06:43:04.913Z,87.98
2023-01-11T06:44:07.069Z,88.39
2023-01-11T06:45:09.203Z,89.04
2023-01-11T06:46:12.818Z,89.31
2023-01-11T06:47:14.767Z,89.86
2023-01-11T06:48:18.439Z,90.10
2023-01-11T06:49:20.303Z,91.31
2023-01-11T06:50:22.192Z,91.51
2023-01-11T06:51:24.401Z,91.75
2023-01-11T06:52:27.943Z,92.22
2023-01-11T06:53:29.686Z,92.72
2023-01-11T06:54:31.249Z,92.88
2023-01-11T06:55:33.854Z,92.80
2023-01-11T06:56:35.542Z,93.33
2023-01-11T06:57:37.958Z,93.30
2023-01-11T06:58:39.942Z,93.60
2023-01-11T06:59:43.277Z,92.93
2023-01-11T07:00:45.295Z,93.01
2023-01-11T07:01:47.055Z,92.91
2023-01-11T07:02:49.371Z,92.80
2023-01-11T07:03:52.913Z,92.58
2023-01-11T07:04:54.860Z,92.77
2023-01-11T07:05:57.432Z,91.59
2023-01-11T07:06:59.373Z,91.34
2023-01-11T07:08:01.120Z,91.71
2023-01-11T07:09:02.793Z,91.63
2023-01-11T07:10:08.186Z,90.99
2023-01-11T07:11:10.121Z,90.33
2023-01-11T07:12:11.949Z,90.06
2023-01-11T07:13:16.354Z,90.73
2023-01-11T07:14:20.098Z,91.44
2023-01-11T07:15:22.751Z,92.34
2023-01-11T07:16:24.452Z,91.16
2023-01-11T07:17:26.123Z,89.95
2023-01-11T07:18:28.068Z,89.54
2023-01-11T07:19:29.757Z,88.75
2023-01-11T07:20:31.591Z,88.78
2023-01-11T07:21:33.480Z,88.74
2023-01-11T07:22:36.861Z,88.79
2023-01-11T07:23:38.538Z,88.38
2023-01-11T07:24:40.171Z,87.61
2023-01-11T07:25:42.212Z,87.85
2023-01-11T07:26:43.921Z,88.28
2023-01-11T07:27:45.767Z,87.08
2023-01-11T07:28:47.423Z,87.08
2023-01-11T07:29:49.435Z,86.88
2023-01-11T07:30:59.779Z,87.46
2023-01-11T07:32:05.646Z,87.87
2023-01-11T07:33:07.962Z,87.14
2023-01-11T07:34:10.242Z,87.44
2023-01-11T07:35:11.810Z,86.60
2023-01-11T07:36:13.600Z,87.13
2023-01-11T07:37:28.330Z,86.92
2023-01-11T07:38:31.321Z,86.59
2023-01-11T07:39:42.698Z,86.76
2023-01-11T07:40:45.134Z,86.24
2023-01-11T07:42:05.452Z,86.70
2023-01-11T07:43:18.251Z,85.99
2023-01-11T07:44:20.799Z,86.20
2023-01-11T07:45:34.316Z,86.16
2023-01-11T07:46:42.766Z,85.76
2023-01-11T07:47:44.647Z,85.50
2023-01-11T07:48:46.289Z,84.89
2023-01-11T07:49:48.004Z,84.93
2023-01-11T07:50:50.095Z,85.21
2023-01-11T07:51:54.703Z,85.51
2023-01-11T07:52:57.292Z,84.94
2023-01-11T07:54:02.807Z,85.27
2023-01-11T07:55:04.949Z,85.71
2023-01-11T07:56:07.961Z,85.81
2023-01-11T07:57:09.645Z,85.13
2023-01-11T07:58:12.804Z,85.17
2023-01-11T07:59:14.457Z,85.29
2023-01-11T08:00:16.543Z,84.98
2023-01-11T08:01:18.352Z,84.28
2023-01-11T08:02:20.241Z,84.57
2023-01-11T08:03:22.557Z,84.30
2023-01-11T08:04:24.651Z,84.43
2023-01-11T08:05:26.584Z,84.87
2023-01-11T08:06:28.529Z,84.81
2023-01-11T08:07:30.177Z,85.00
2023-01-11T08:08:31.789Z,85.41
2023-01-11T08:09:34.854Z,85.31
2023-01-11T08:10:36.523Z,84.60
2023-01-11T08:11:57.020Z,84.34
2023-01-11T08:13:17.115Z,85.43
2023-01-11T08:14:36.970Z,84.16
2023-01-11T08:15:42.859Z,83.88
2023-01-11T08:16:47.554Z,83.74
2023-01-11T08:17:49.778Z,83.72
2023-01-11T08:18:52.782Z,84.10
2023-01-11T08:19:56.221Z,84.46
2023-01-11T08:20:58.391Z,84.17
2023-01-11T08:21:59.965Z,84.18
2023-01-11T08:23:06.952Z,84.03
2023-01-11T08:24:08.942Z,83.80
2023-01-11T08:25:11.376Z,83.64
2023-01-11T08:26:17.078Z,84.52
2023-01-11T08:27:18.741Z,84.93
2023-01-11T08:28:20.418Z,85.78
2023-01-11T08:29:22.693Z,85.79
2023-01-11T08:30:24.411Z,86.25
2023-01-11T08:31:26.802Z,86.84
2023-01-11T08:32:29.958Z,87.23
2023-01-11T08:33:31.882Z,87.23
2023-01-11T08:34:34.749Z,87.73
2023-01-11T08:35:40.124Z,88.06
2023-01-11T08:36:41.802Z,89.25
2023-01-11T08:37:44.875Z,89.96
2023-01-11T08:38:46.817Z,89.99
2023-01-11T08:39:48.821Z,91.32
2023-01-11T08:40:50.534Z,91.23
2023-01-11T08:41:52.339Z,91.34
2023-01-11T08:42:57.844Z,92.38
2023-01-11T08:43:59.917Z,92.23
2023-01-11T08:45:02.063Z,93.04
2023-01-11T08:46:04.302Z,94.06
2023-01-11T08:47:06.248Z,94.06
2023-01-11T08:48:08.422Z,95.00
2023-01-11T08:49:12.325Z,96.14
2023-01-11T08:50:16.367Z,98.83
2023-01-11T08:51:18.611Z,100.00
2023-01-11T08:52:21.544Z,100.00
2023-01-11T08:53:23.595Z,100.00
2023-01-11T08:54:25.594Z,100.00
2023-01-11T08:55:27.481Z,100.00
2023-01-11T08:56:29.016Z,100.00
2023-01-11T08:57:30.810Z,100.00
2023-01-11T08:58:32.574Z,100.00
2023-01-11T08:59:34.169Z,100.00
2023-01-11T09:00:36.375Z,100.00
2023-01-11T09:01:39.558Z,100.00
2023-01-11T09:02:43.042Z,100.00
2023-01-11T09:03:45.165Z,100.00
2023-01-11T09:04:46.841Z,100.00
2023-01-11T09:05:49.276Z,100.00
2023-01-11T09:06:51.957Z,100.00
2023-01-11T09:07:57.497Z,100.00
2023-01-11T09:08:59.525Z,100.00
2023-01-11T09:10:03.973Z,100.00
2023-01-11T09:11:25.809Z,100.00
2023-01-11T09:12:27.927Z,100.00
2023-01-11T09:13:29.754Z,100.00
2023-01-11T09:14:31.745Z,100.00
2023-01-11T09:15:33.783Z,100.00
2023-01-11T09:16:35.608Z,100.00
2023-01-11T09:17:38.958Z,100.00
2023-01-11T09:18:41.665Z,100.00
2023-01-11T09:19:43.410Z,100.00
2023-01-11T09:20:45.176Z,100.00
2023-01-11T09:21:46.915Z,100.00
2023-01-11T09:22:52.793Z,100.00
2023-01-11T09:23:54.742Z,100.00
2023-01-11T09:24:59.122Z,100.00
2023-01-11T09:26:00.713Z,100.00
2023-01-11T09:27:02.889Z,100.00
2023-01-11T09:28:04.763Z,100.00
2023-01-11T09:29:08.089Z,100.00
2023-01-11T09:30:11.726Z,100.00
2023-01-11T09:31:13.857Z,100.00
2023-01-11T09:32:16.529Z,100.00
2023-01-11T09:33:18.322Z,100.00
2023-01-11T09:34:21.040Z,100.00
2023-01-11T09:35:22.960Z,100.00
2023-01-11T09:36:26.934Z,100.00
2023-01-11T09:37:30.145Z,100.00
2023-01-11T09:38:34.038Z,100.00
2023-01-11T09:39:35.792Z,100.00
2023-01-11T09:41:00.591Z,100.00
2023-01-11T09:42:31.794Z,100.00
2023-01-11T09:43:40.162Z,100.00
2023-01-11T09:45:11.566Z,100.00
2023-01-11T09:46:14.650Z,100.00
2023-01-11T09:47:41.722Z,100.00
2023-01-11T09:48:54.196Z,100.00
2023-01-11T09:50:00.890Z,100.00
2023-01-11T09:51:02.912Z,100.00
2023-01-11T09:52:24.257Z,100.00
2023-01-11T09:53:34.767Z,100.00
2023-01-11T09:54:37.102Z,100.00
2023-01-11T09:55:46.546Z,100.00
2023-01-11T09:57:07.879Z,100.00
2023-01-11T09:58:25.926Z,100.00
2023-01-11T09:59:38.637Z,100.00
2023-01-11T10:00:53.943Z,100.00
2023-01-11T10:02:42.657Z,100.00
2023-01-11T10:04:26.471Z,100.00
2023-01-11T10:05:52.590Z,100.00
2023-01-11T10:07:29.807Z,100.00
2023-01-11T10:18:29.803Z,100.00
2023-01-11T10:18:38.800Z,100.00
2023-01-11T10:19:04.549Z,100.00
2023-01-11T10:20:30.966Z,100.00
2023-01-11T10:21:46.061Z,100.00
2023-01-11T10:22:48.604Z,100.00
2023-01-11T10:23:57.425Z,100.00
2023-01-11T10:25:19.047Z,100.00
2023-01-11T10:26:29.349Z,100.00
2023-01-11T10:27:48.136Z,100.00
2023-01-11T10:29:14.680Z,100.00
2023-01-11T10:30:37.158Z,100.00
2023-01-11T10:31:59.619Z,100.00
2023-01-11T10:33:40.356Z,100.00
2023-01-11T10:35:13.751Z,100.00
2023-01-11T10:37:04.372Z,100.00
2023-01-11T10:38:46.477Z,100.00
2023-01-11T10:40:25.495Z,100.00
2023-01-11T10:41:57.756Z,100.00
2023-01-11T10:43:17.379Z,100.00
2023-01-11T10:44:32.023Z,100.00
2023-01-11T10:45:56.325Z,100.00
2023-01-11T10:47:00.002Z,100.00
2023-01-11T10:48:11.878Z,100.00
2023-01-11T10:49:51.742Z,100.00
2023-01-11T10:51:15.031Z,100.00
2023-01-11T10:52:30.855Z,100.00
2023-01-11T10:53:38.633Z,100.00
2023-01-11T10:54:47.371Z,100.00
2023-01-11T10:56:18.251Z,100.00
2023-01-11T10:58:01.719Z,100.00
2023-01-11T10:59:07.835Z,100.00
2023-01-11T11:00:14.294Z,100.00
2023-01-11T11:01:49.318Z,100.00
2023-01-11T11:03:02.501Z,100.00
2023-01-11T11:04:27.114Z,100.00
2023-01-11T11:05:47.045Z,100.00
2023-01-11T11:07:00.345Z,100.00
2023-01-11T11:08:10.353Z,100.00
2023-01-11T11:09:15.084Z,100.00
2023-01-11T11:10:21.982Z,100.00
2023-01-11T11:11:38.984Z,100.00
2023-01-11T11:12:52.265Z,100.00
2023-01-11T11:14:06.711Z,100.00
2023-01-11T11:15:21.892Z,100.00
2023-01-11T11:16:39.024Z,100.00
2023-01-11T11:17:46.255Z,100.00
2023-01-11T11:18:49.713Z,100.00
2023-01-11T11:19:53.355Z,100.00
2023-01-11T11:21:00.340Z,100.00
2023-01-11T11:22:02.394Z,100.00
2023-01-11T11:23:05.996Z,100.00
2023-01-11T11:24:37.446Z,100.00
2023-01-11T11:25:51.452Z,100.00
2023-01-11T11:27:00.122Z,100.00
2023-01-11T11:28:06.444Z,100.00
2023-01-11T11:29:11.088Z,100.00
2023-01-11T11:30:14.928Z,100.00
2023-01-11T11:31:17.099Z,100.00
2023-01-11T11:32:25.167Z,100.00
2023-01-11T11:33:38.195Z,100.00
2023-01-11T11:34:47.188Z,100.00
2023-01-11T11:36:02.655Z,100.00
2023-01-11T11:37:04.449Z,100.00
2023-01-11T11:38:06.973Z,100.00
2023-01-11T11:39:31.649Z,100.00
2023-01-11T11:40:38.748Z,100.00
2023-01-11T11:42:03.906Z,100.00
2023-01-11T11:43:12.170Z,100.00
2023-01-11T11:44:24.721Z,100.00
2023-01-11T11:45:27.704Z,100.00
2023-01-11T11:46:30.716Z,100.00
2023-01-11T11:47:32.522Z,100.00
2023-01-11T11:48:35.048Z,100.00
2023-01-11T11:49:38.469Z,100.00
2023-01-11T11:50:45.665Z,100.00
2023-01-11T11:51:51.094Z,100.00
2023-01-11T11:53:05.267Z,100.00
2023-01-11T11:54:07.309Z,100.00
2023-01-11T11:55:10.158Z,100.00
2023-01-11T11:56:28.107Z,100.00
2023-01-11T11:57:39.062Z,100.00
2023-01-11T11:58:42.732Z,100.00
2023-01-11T11:59:48.143Z,100.00
2023-01-11T12:00:51.846Z,100.00
2023-01-11T12:02:03.644Z,100.00
2023-01-11T12:03:14.658Z,100.00
2023-01-11T12:04:20.933Z,100.00
2023-01-11T12:05:22.811Z,100.00
2023-01-11T12:06:30.633Z,100.00
2023-01-11T12:07:49.811Z,100.00
2023-01-11T12:08:58.577Z,100.00
2023-01-11T12:10:07.124Z,100.00
2023-01-11T12:11:20.338Z,100.00
2023-01-11T12:12:26.417Z,100.00
2023-01-11T12:13:32.645Z,100.00
2023-01-11T12:14:36.520Z,100.00
2023-01-11T12:15:38.652Z,100.00
2023-01-11T12:16:42.187Z,100.00
2023-01-11T12:17:44.246Z,100.00
2023-01-11T12:18:46.860Z,100.00
2023-01-11T12:19:49.991Z,100.00
2023-01-11T12:20:52.313Z,100.00
2023-01-11T12:22:08.675Z,100.00
2023-01-11T12:23:17.436Z,100.00
2023-01-11T12:24:20.627Z,100.00
2023-01-11T12:25:25.421Z,100.00
2023-01-11T12:26:37.043Z,100.00
2023-01-11T12:27:38.778Z,100.00
2023-01-11T12:29:05.229Z,100.00
2023-01-11T12:30:34.826Z,100.00
2023-01-11T12:31:57.940Z,100.00
2023-01-11T12:33:23.783Z,100.00
2023-01-11T12:34:47.451Z,100.00
2023-01-11T12:36:03.158Z,100.00
2023-01-11T12:37:11.988Z,100.00
2023-01-11T12:38:39.802Z,100.00
2023-01-11T12:39:44.268Z,100.00
2023-01-11T12:41:04.284Z,100.00
2023-01-11T12:42:53.435Z,100.00
2023-01-11T12:44:02.894Z,100.00
2023-01-11T12:45:13.612Z,100.00
2023-01-11T12:46:53.627Z,100.00
2023-01-11T12:48:07.273Z,100.00
2023-01-11T12:49:40.917Z,100.00
2023-01-11T12:50:55.850Z,100.00
2023-01-11T12:52:19.394Z,100.00
2023-01-11T12:53:36.739Z,100.00
2023-01-11T12:55:09.875Z,100.00
2023-01-11T12:56:30.591Z,100.00
2023-01-11T12:58:20.006Z,100.00
2023-01-11T12:59:54.460Z,100.00
2023-01-11T13:01:01.918Z,100.00
2023-01-11T13:02:18.077Z,100.00
2023-01-11T13:03:38.016Z,100.00
2023-01-11T13:04:53.741Z,100.00
2023-01-11T13:06:14.640Z,100.00
2023-01-11T13:07:32.723Z,100.00
2023-01-11T13:08:35.508Z,100.00
2023-01-11T13:09:55.833Z,100.00
2023-01-11T13:11:35.553Z,100.00
2023-01-11T13:12:46.450Z,100.00
2023-01-11T13:14:14.484Z,100.00
2023-01-11T13:15:45.060Z,100.00
2023-01-11T13:16:55.798Z,100.00
2023-01-11T13:18:20.226Z,100.00
2023-01-11T13:19:30.686Z,100.00
2023-01-11T13:21:01.279Z,100.00
2023-01-11T13:22:10.881Z,100.00
2023-01-11T13:23:18.063Z,100.00
2023-01-11T13:24:40.207Z,100.00
2023-01-11T13:25:45.923Z,100.00
2023-01-11T13:26:50.752Z,100.00
2023-01-11T13:27:56.933Z,100.00
2023-01-11T13:29:07.272Z,100.00
2023-01-11T13:30:14.223Z,100.00
2023-01-11T13:31:17.301Z,100.00
2023-01-11T13:32:23.720Z,100.00
2023-01-11T13:33:31.033Z,100.00
2023-01-11T13:34:41.537Z,100.00
2023-01-11T13:35:50.081Z,100.00
2023-01-11T13:36:57.469Z,100.00
2023-01-11T13:38:13.518Z,100.00
2023-01-11T13:39:28.270Z,100.00
2023-01-11T13:40:36.266Z,100.00
2023-01-11T13:41:45.221Z,100.00
2023-01-11T13:42:54.880Z,100.00
2023-01-11T13:44:07.289Z,100.00
2023-01-11T13:45:30.293Z,100.00
2023-01-11T13:46:35.089Z,100.00
2023-01-11T13:47:55.776Z,100.00
2023-01-11T13:49:11.134Z,100.00
2023-01-11T13:50:22.914Z,100.00
2023-01-11T13:51:56.511Z,100.00
2023-01-11T13:53:10.073Z,100.00
2023-01-11T13:54:20.233Z,100.00
2023-01-11T13:55:26.443Z,100.00
2023-01-11T13:56:38.182Z,100.00
2023-01-11T13:57:58.480Z,100.00
2023-01-11T13:59:12.953Z,100.00
2023-01-11T14:00:24.974Z,100.00
2023-01-11T14:01:56.263Z,100.00
2023-01-11T14:03:06.892Z,100.00
2023-01-11T14:04:16.221Z,100.00
2023-01-11T14:05:23.023Z,100.00
2023-01-11T14:06:59.430Z,100.00
2023-01-11T14:08:25.800Z,100.00
2023-01-11T14:09:38.170Z,100.00
2023-01-11T14:10:51.018Z,100.00
2023-01-11T14:11:58.590Z,100.00
2023-01-11T14:13:12.428Z,100.00
2023-01-11T14:14:37.384Z,100.00
2023-01-11T14:16:00.068Z,100.00
2023-01-11T14:17:30.619Z,100.00
2023-01-11T14:19:25.635Z,100.00
2023-01-11T14:20:45.518Z,100.00
2023-01-11T14:22:15.759Z,100.00
2023-01-11T14:23:18.322Z,100.00
2023-01-11T14:24:22.352Z,100.00
2023-01-11T14:25:47.901Z,100.00
2023-01-11T14:27:29.968Z,100.00
2023-01-11T14:28:44.345Z,100.00
2023-01-11T14:30:04.781Z,100.00
2023-01-11T14:31:20.977Z,100.00
2023-01-11T14:33:00.592Z,100.00
2023-01-11T14:34:33.137Z,100.00
2023-01-11T14:35:52.774Z,100.00
2023-01-11T14:37:26.640Z,100.00
2023-01-11T14:38:36.364Z,100.00
2023-01-11T14:40:09.857Z,100.00